Terminal Aerodrome Forecast
Issued by NWS Charleston, WV

Current Version | Previous Version | Text Only | Print | Product List | Glossary Off
Versions: 1 2 3 4 5 6 7 8 9 10 11 12 13 14 15 16 17 18 19 20 21 22 23

000
FTUS41 KRLX 231726
TAFCRW
TAF
KCRW 231726Z 2318/2418 VRB03KT P6SM FEW050
     FM240800 VRB02KT 2SM BR FEW001
     FM241000 00000KT 1/2SM FG SCT001
     FM241300 00000KT 5SM BR FEW001
     FM241400 VRB02KT P6SM FEW035=

USA.gov is the U.S. government's official web portal to all federal, state and local government web resources and services.